Najaf, Iraq
Current Conditions -  °F | °C
As of 3:00 AM on Sunday 23 Nov 2014 (Local Time) from ORNI Reporting Station
Scattered Clouds Scattered Clouds  
Wind Chill: 61°   Ceiling: Unl
Heat Index: 61°   Visibility: 5mi
Dew Point: 50°   Wind: 8mph
Humidity: 68%   Direction: 310°NW
Pressure: 29.94"   Gusts: NA
Location:  31.98°N, 44.32°E
Report Text: ORNI 230000Z 31007KT 8000 SCT040 16/10 Q1014 NOSIG
Loading
Personal Weather Stations






























Interactive Weather Map New forecast layout! Learn more

10-Day Weather Forecast

Advertisements
Track Severe Weather on mobile